Time;durP1;ratioP1;P1;durP2;ratioP2;P2;SDS_P1;SDS_P2;PMS_P1;PMS_P2;Temp;Humidity;BMP_temperature;BMP_pressure;BME280_temperature;BME280_humidity;BME280_pressure;Samples;Min_cycle;Max_cycle;Signal;HPM_P1;HPM_P2
2022/04/24 00:02:01;;;;;;;21.90;13.23;;;;;;;;;;4983638;28;20485;-54
2022/04/24 00:04:27;;;;;;;22.00;16.60;;;;;;;;;;4960223;28;20212;-53
2022/04/24 00:06:53;;;;;;;23.83;16.93;;;;;;;;;;5001703;28;20190;-54
2022/04/24 00:09:20;;;;;;;20.83;15.40;;;;;;;;;;4958983;28;20931;-53
2022/04/24 00:11:45;;;;;;;20.10;13.43;;;;;;;;;;4989210;28;20449;-54
2022/04/24 00:14:12;;;;;;;21.57;14.93;;;;;;;;;;4985637;28;20439;-53
2022/04/24 00:16:38;;;;;;;21.30;13.87;;;;;;;;;;4989370;28;20798;-53
2022/04/24 00:19:04;;;;;;;17.03;13.90;;;;;;;;;;4976118;28;21140;-53
2022/04/24 00:21:30;;;;;;;24.20;13.60;;;;;;;;;;4973790;28;20614;-54
2022/04/24 00:23:56;;;;;;;17.17;12.60;;;;;;;;;;4955156;28;20563;-53
2022/04/24 00:26:22;;;;;;;20.83;13.90;;;;;;;;;;4961370;28;20468;-53
2022/04/24 00:28:48;;;;;;;19.63;14.90;;;;;;;;;;4981141;28;20437;-53
2022/04/24 00:31:14;;;;;;;23.70;13.20;;;;;;;;;;4975171;28;20448;-54
2022/04/24 00:33:40;;;;;;;16.30;11.37;;;;;;;;;;4957324;28;20996;-54
2022/04/24 00:36:06;;;;;;;18.30;12.43;;;;;;;;;;4979268;28;20783;-54
2022/04/24 00:38:35;;;;;;;17.80;12.50;;;;;;;;;;4981519;28;20437;-54
2022/04/24 00:41:01;;;;;;;15.83;12.30;;;;;;;;;;4958818;28;20814;-54
2022/04/24 00:43:27;;;;;;;16.70;14.00;;;;;;;;;;4983979;28;20437;-53
2022/04/24 00:45:54;;;;;;;25.03;18.70;;;;;;;;;;4962340;28;20436;-54
2022/04/24 00:48:19;;;;;;;19.63;15.70;;;;;;;;;;4974172;28;20487;-55
2022/04/24 00:50:46;;;;;;;18.47;14.97;;;;;;;;;;4962315;28;20954;-56
2022/04/24 00:53:12;;;;;;;19.00;14.27;;;;;;;;;;4985885;28;20540;-54
2022/04/24 00:55:38;;;;;;;16.67;12.70;;;;;;;;;;4951180;28;21414;-54
2022/04/24 00:58:04;;;;;;;17.97;13.17;;;;;;;;;;4995052;28;20541;-54
2022/04/24 01:00:30;;;;;;;18.47;13.20;;;;;;;;;;4988005;28;20567;-54
2022/04/24 01:02:56;;;;;;;18.53;13.50;;;;;;;;;;4985553;28;21224;-54
2022/04/24 01:05:23;;;;;;;16.27;13.60;;;;;;;;;;4963875;28;20269;-54
2022/04/24 01:07:49;;;;;;;21.50;13.93;;;;;;;;;;4989884;28;20511;-53
2022/04/24 01:10:15;;;;;;;20.00;13.17;;;;;;;;;;4982937;28;20433;-54
2022/04/24 01:12:41;;;;;;;19.27;13.07;;;;;;;;;;4982930;28;20182;-53
2022/04/24 01:15:07;;;;;;;16.10;11.47;;;;;;;;;;4978289;28;20819;-53
2022/04/24 01:17:33;;;;;;;17.80;12.60;;;;;;;;;;4979264;28;20448;-54
2022/04/24 01:19:59;;;;;;;15.57;12.13;;;;;;;;;;4988413;28;21139;-53
2022/04/24 01:22:25;;;;;;;18.40;12.80;;;;;;;;;;4981718;28;20472;-54
2022/04/24 01:24:51;;;;;;;18.30;13.70;;;;;;;;;;4979741;28;20194;-54
2022/04/24 01:27:17;;;;;;;15.07;10.80;;;;;;;;;;4973801;28;20476;-54
2022/04/24 01:29:43;;;;;;;17.60;12.73;;;;;;;;;;4968504;28;20438;-54
2022/04/24 01:32:09;;;;;;;14.97;11.50;;;;;;;;;;4946379;28;20671;-54
2022/04/24 01:34:35;;;;;;;15.47;11.27;;;;;;;;;;4984849;28;20468;-56
2022/04/24 01:37:01;;;;;;;16.13;11.97;;;;;;;;;;4967171;28;20456;-53
2022/04/24 01:39:27;;;;;;;16.50;12.47;;;;;;;;;;4993632;28;20499;-53
2022/04/24 01:41:55;;;;;;;16.07;13.10;;;;;;;;;;4986527;28;20221;-54
2022/04/24 01:44:21;;;;;;;17.33;13.40;;;;;;;;;;4993983;28;20438;-54
2022/04/24 01:46:47;;;;;;;18.40;12.80;;;;;;;;;;4959924;28;20446;-54
2022/04/24 01:49:13;;;;;;;16.07;13.20;;;;;;;;;;4989701;28;20179;-53
2022/04/24 01:51:39;;;;;;;19.80;12.53;;;;;;;;;;4960967;28;20437;-53
2022/04/24 01:54:05;;;;;;;18.13;11.90;;;;;;;;;;4991974;28;20181;-52
2022/04/24 01:56:31;;;;;;;13.90;10.63;;;;;;;;;;4983457;28;20969;-52
2022/04/24 01:58:57;;;;;;;14.83;11.70;;;;;;;;;;4991562;28;20622;-53
2022/04/24 02:01:23;;;;;;;17.23;12.83;;;;;;;;;;4942500;28;20213;-55
2022/04/24 02:03:49;;;;;;;15.57;11.40;;;;;;;;;;4986973;28;20244;-53
2022/04/24 02:06:14;;;;;;;15.97;11.20;;;;;;;;;;4966412;28;20448;-54
2022/04/24 02:08:40;;;;;;;14.67;12.67;;;;;;;;;;4988695;28;20171;-53
2022/04/24 02:11:06;;;;;;;16.90;12.07;;;;;;;;;;4978234;28;20446;-54
2022/04/24 02:13:33;;;;;;;15.57;12.30;;;;;;;;;;5001719;28;20928;-54
2022/04/24 02:15:59;;;;;;;15.23;11.97;;;;;;;;;;4980573;28;20494;-55
2022/04/24 02:18:25;;;;;;;17.80;13.47;;;;;;;;;;4990254;28;20524;-53
2022/04/24 02:20:51;;;;;;;14.30;11.20;;;;;;;;;;4959778;28;20477;-53
2022/04/24 02:23:16;;;;;;;18.47;12.67;;;;;;;;;;4993322;28;20436;-53
2022/04/24 02:25:42;;;;;;;17.57;12.70;;;;;;;;;;4961006;28;20923;-54
2022/04/24 02:28:08;;;;;;;16.30;12.00;;;;;;;;;;4992150;28;20494;-55
2022/04/24 02:30:35;;;;;;;14.47;12.30;;;;;;;;;;4985539;28;20186;-51
2022/04/24 02:33:01;;;;;;;15.40;11.27;;;;;;;;;;4988177;28;20262;-53
2022/04/24 02:35:27;;;;;;;15.87;12.40;;;;;;;;;;4931870;28;21408;-55
2022/04/24 02:37:53;;;;;;;16.97;12.37;;;;;;;;;;5004530;28;20453;-55
2022/04/24 02:40:22;;;;;;;17.70;13.07;;;;;;;;;;4981154;28;20470;-53
2022/04/24 02:42:52;;;;;;;16.80;12.00;;;;;;;;;;4992171;28;20457;-54
2022/04/24 02:45:18;;;;;;;18.23;13.03;;;;;;;;;;4969019;28;20449;-53
2022/04/24 02:47:43;;;;;;;21.67;13.70;;;;;;;;;;4986179;28;20449;-53
2022/04/24 02:50:09;;;;;;;21.23;15.23;;;;;;;;;;4974390;28;20440;-58
2022/04/24 02:53:05;;;;;;;18.43;13.93;;;;;;;;;;4982786;28;20254;-52
2022/04/24 02:55:31;;;;;;;22.83;14.30;;;;;;;;;;4981271;28;20583;-53
2022/04/24 02:57:57;;;;;;;17.03;13.00;;;;;;;;;;4987389;28;20465;-53
2022/04/24 03:00:24;;;;;;;20.63;13.17;;;;;;;;;;4981640;28;20582;-55
2022/04/24 03:02:51;;;;;;;22.90;15.20;;;;;;;;;;4986556;28;20445;-54
2022/04/24 03:05:20;;;;;;;20.13;13.87;;;;;;;;;;4948464;28;20440;-53
2022/04/24 03:07:46;;;;;;;19.13;14.43;;;;;;;;;;4985951;28;20461;-54
2022/04/24 03:10:12;;;;;;;20.67;14.37;;;;;;;;;;4983354;28;20444;-54
2022/04/24 03:12:38;;;;;;;18.93;12.87;;;;;;;;;;4982239;28;20507;-53
2022/04/24 03:15:05;;;;;;;21.03;15.43;;;;;;;;;;4983751;28;21029;-54
2022/04/24 03:17:32;;;;;;;18.70;14.20;;;;;;;;;;4984674;28;21285;-54
2022/04/24 03:20:03;;;;;;;22.17;16.80;;;;;;;;;;4973034;28;20449;-53
2022/04/24 03:22:30;;;;;;;23.10;15.70;;;;;;;;;;4976504;28;20567;-54
2022/04/24 03:24:57;;;;;;;19.70;14.03;;;;;;;;;;4978270;28;20578;-53
2022/04/24 03:27:23;;;;;;;20.30;14.20;;;;;;;;;;4972597;28;20535;-54
2022/04/24 03:29:49;;;;;;;20.80;16.33;;;;;;;;;;4981946;28;20531;-53
2022/04/24 03:32:15;;;;;;;21.43;15.37;;;;;;;;;;4981320;28;20206;-53
2022/04/24 03:34:41;;;;;;;19.47;15.00;;;;;;;;;;4978401;28;20444;-52
2022/04/24 03:37:07;;;;;;;22.40;15.07;;;;;;;;;;4967675;28;20433;-53
2022/04/24 03:39:33;;;;;;;23.20;16.40;;;;;;;;;;4994616;28;20520;-54
2022/04/24 03:41:59;;;;;;;23.97;14.47;;;;;;;;;;4949302;28;20572;-53
2022/04/24 03:44:25;;;;;;;19.80;14.17;;;;;;;;;;4990829;28;21119;-52
2022/04/24 03:46:51;;;;;;;20.90;14.93;;;;;;;;;;4984771;28;20481;-53
2022/04/24 03:49:17;;;;;;;20.67;13.80;;;;;;;;;;4989233;28;20435;-54
2022/04/24 03:51:43;;;;;;;20.67;14.07;;;;;;;;;;4991309;28;20452;-53
2022/04/24 03:54:09;;;;;;;27.27;16.87;;;;;;;;;;4991944;28;20456;-52
2022/04/24 03:56:35;;;;;;;27.47;15.30;;;;;;;;;;4964429;28;20448;-51
2022/04/24 03:59:01;;;;;;;21.50;15.80;;;;;;;;;;4992633;28;20432;-53
2022/04/24 04:01:27;;;;;;;22.30;15.73;;;;;;;;;;4983806;28;20572;-52
2022/04/24 04:03:53;;;;;;;20.80;15.23;;;;;;;;;;4986458;28;20464;-54
2022/04/24 04:06:19;;;;;;;24.50;15.93;;;;;;;;;;4985569;28;20186;-53
2022/04/24 04:08:45;;;;;;;25.13;16.30;;;;;;;;;;4983695;28;20445;-53
2022/04/24 04:11:12;;;;;;;24.00;17.17;;;;;;;;;;4975999;28;21066;-53
2022/04/24 04:13:38;;;;;;;22.87;16.07;;;;;;;;;;4985812;28;20441;-53
2022/04/24 04:16:04;;;;;;;22.03;15.63;;;;;;;;;;4951417;28;20456;-53
2022/04/24 04:18:30;;;;;;;24.63;13.83;;;;;;;;;;4980616;28;20453;-53
2022/04/24 04:20:57;;;;;;;24.60;16.10;;;;;;;;;;4985290;28;20482;-54
2022/04/24 04:23:23;;;;;;;24.93;18.83;;;;;;;;;;4985821;28;20702;-52
2022/04/24 04:25:49;;;;;;;23.73;17.13;;;;;;;;;;4984979;28;20446;-55
2022/04/24 04:28:15;;;;;;;25.87;17.67;;;;;;;;;;4990638;28;20428;-52
2022/04/24 04:30:41;;;;;;;25.03;17.50;;;;;;;;;;4978139;28;20532;-52
2022/04/24 04:33:09;;;;;;;26.60;18.80;;;;;;;;;;4991909;28;20441;-53
2022/04/24 04:35:35;;;;;;;26.23;17.30;;;;;;;;;;4965180;28;21030;-54
2022/04/24 04:38:01;;;;;;;24.10;17.10;;;;;;;;;;4991625;28;20429;-53
2022/04/24 04:40:27;;;;;;;29.27;15.73;;;;;;;;;;4974210;28;20594;-57
2022/04/24 04:42:53;;;;;;;15.40;10.43;;;;;;;;;;4988280;28;20460;-56
2022/04/24 04:45:19;;;;;;;11.80;9.37;;;;;;;;;;4983703;28;20788;-55
2022/04/24 04:47:49;;;;;;;12.43;4.90;;;;;;;;;;4991265;28;20437;-55
2022/04/24 04:50:15;;;;;;;6.90;4.30;;;;;;;;;;4944665;28;20507;-55
2022/04/24 04:52:41;;;;;;;8.50;3.67;;;;;;;;;;4989131;28;20434;-55
2022/04/24 04:55:07;;;;;;;3.47;2.23;;;;;;;;;;4960978;28;20451;-55
2022/04/24 04:57:33;;;;;;;2.47;1.70;;;;;;;;;;4992609;28;20449;-57
2022/04/24 04:59:59;;;;;;;2.50;1.63;;;;;;;;;;4983030;28;20456;-55
2022/04/24 05:02:24;;;;;;;1.87;0.90;;;;;;;;;;4983336;28;20473;-56
2022/04/24 05:04:50;;;;;;;1.30;0.77;;;;;;;;;;4959593;28;20568;-55
2022/04/24 05:07:16;;;;;;;2.63;1.10;;;;;;;;;;4993031;28;20912;-57
2022/04/24 05:09:42;;;;;;;2.27;1.10;;;;;;;;;;4983324;28;20273;-54
2022/04/24 05:12:10;;;;;;;1.93;0.70;;;;;;;;;;4989396;28;21052;-54
2022/04/24 05:14:36;;;;;;;2.00;0.80;;;;;;;;;;4988216;28;22055;-56
2022/04/24 05:17:02;;;;;;;1.23;0.73;;;;;;;;;;4988928;28;20449;-56
2022/04/24 05:19:28;;;;;;;1.20;0.67;;;;;;;;;;4984529;28;20186;-57
2022/04/24 05:21:54;;;;;;;1.10;0.73;;;;;;;;;;4995724;28;20469;-55
2022/04/24 05:24:20;;;;;;;0.93;0.53;;;;;;;;;;4948604;28;20449;-55
2022/04/24 05:26:46;;;;;;;1.10;0.60;;;;;;;;;;5000347;28;20191;-56
2022/04/24 05:29:12;;;;;;;1.00;0.60;;;;;;;;;;4979909;28;20503;-57
2022/04/24 05:31:38;;;;;;;1.10;0.60;;;;;;;;;;4991518;28;20503;-56
2022/04/24 05:34:05;;;;;;;0.80;0.50;;;;;;;;;;4975464;28;20761;-56
2022/04/24 05:36:31;;;;;;;1.13;0.50;;;;;;;;;;4975835;28;20444;-56
2022/04/24 05:38:57;;;;;;;1.00;0.60;;;;;;;;;;4977618;28;20677;-56
2022/04/24 05:41:23;;;;;;;1.20;0.80;;;;;;;;;;4974601;28;20480;-56
2022/04/24 05:43:49;;;;;;;1.70;0.70;;;;;;;;;;4988188;28;20438;-55
2022/04/24 05:46:15;;;;;;;0.90;0.60;;;;;;;;;;4988018;28;20992;-54
2022/04/24 05:48:41;;;;;;;0.80;0.50;;;;;;;;;;4986579;28;20446;-56
2022/04/24 05:51:07;;;;;;;1.50;0.60;;;;;;;;;;4994704;28;20441;-56
2022/04/24 05:53:33;;;;;;;1.43;0.80;;;;;;;;;;4977958;28;20440;-55
2022/04/24 05:55:59;;;;;;;2.13;0.67;;;;;;;;;;4972986;28;20453;-56
2022/04/24 05:58:25;;;;;;;1.50;0.57;;;;;;;;;;4983709;28;20200;-54
2022/04/24 06:00:51;;;;;;;0.83;0.50;;;;;;;;;;4947537;28;20531;-55
2022/04/24 06:03:17;;;;;;;1.00;0.50;;;;;;;;;;4987678;28;20456;-55
2022/04/24 06:05:47;;;;;;;0.90;0.60;;;;;;;;;;4970533;28;20464;-55
2022/04/24 06:08:13;;;;;;;0.80;0.40;;;;;;;;;;5000521;28;20946;-56
2022/04/24 06:10:39;;;;;;;1.80;0.73;;;;;;;;;;4971197;28;20451;-56
2022/04/24 06:13:05;;;;;;;0.80;0.50;;;;;;;;;;4988284;28;20185;-56
2022/04/24 06:15:31;;;;;;;2.20;0.50;;;;;;;;;;4961197;28;20515;-55
2022/04/24 06:17:58;;;;;;;3.00;0.60;;;;;;;;;;4987735;28;20939;-56
2022/04/24 06:20:24;;;;;;;3.90;0.50;;;;;;;;;;4979342;28;20425;-56
2022/04/24 06:22:53;;;;;;;1.47;0.60;;;;;;;;;;4988701;28;20484;-56
2022/04/24 06:25:20;;;;;;;1.00;0.60;;;;;;;;;;4986721;28;20488;-56
2022/04/24 06:27:46;;;;;;;0.90;0.60;;;;;;;;;;4990447;28;20491;-57
2022/04/24 06:30:13;;;;;;;1.40;0.57;;;;;;;;;;4984830;28;20441;-56
2022/04/24 06:32:39;;;;;;;0.90;0.50;;;;;;;;;;4985026;28;20468;-56
2022/04/24 06:35:06;;;;;;;1.33;0.50;;;;;;;;;;4948255;28;20459;-56
2022/04/24 06:37:32;;;;;;;1.03;0.50;;;;;;;;;;4985066;28;20834;-55
2022/04/24 06:39:58;;;;;;;1.20;0.50;;;;;;;;;;4981944;28;20457;-56
2022/04/24 06:42:24;;;;;;;3.13;0.70;;;;;;;;;;4981989;28;20497;-54
2022/04/24 06:44:50;;;;;;;1.93;0.60;;;;;;;;;;4979591;28;20430;-55
2022/04/24 06:47:16;;;;;;;0.90;0.50;;;;;;;;;;4982593;28;20437;-55
2022/04/24 06:49:42;;;;;;;0.80;0.50;;;;;;;;;;4957906;28;20440;-54
2022/04/24 06:52:08;;;;;;;8.13;0.70;;;;;;;;;;4968977;28;20943;-54
2022/04/24 06:54:34;;;;;;;4.50;0.77;;;;;;;;;;4968625;28;21556;-55
2022/04/24 06:57:01;;;;;;;1.03;0.50;;;;;;;;;;4976589;28;20530;-55
2022/04/24 06:59:28;;;;;;;0.80;0.50;;;;;;;;;;4986051;28;20851;-55
2022/04/24 07:01:54;;;;;;;1.27;0.77;;;;;;;;;;4959748;28;20485;-55
2022/04/24 07:04:20;;;;;;;0.90;0.60;;;;;;;;;;4972892;28;20436;-55
2022/04/24 07:06:46;;;;;;;1.13;0.40;;;;;;;;;;4953391;28;20445;-56
2022/04/24 07:09:12;;;;;;;1.50;0.50;;;;;;;;;;4982270;28;20435;-56
2022/04/24 07:11:38;;;;;;;0.80;0.47;;;;;;;;;;4978534;28;20636;-56
2022/04/24 07:14:04;;;;;;;0.77;0.50;;;;;;;;;;4993925;28;20773;-56
2022/04/24 07:16:30;;;;;;;0.80;0.40;;;;;;;;;;4949089;28;20496;-56
2022/04/24 07:18:56;;;;;;;0.80;0.50;;;;;;;;;;4981491;28;20426;-56
2022/04/24 07:21:22;;;;;;;0.80;0.50;;;;;;;;;;4950288;28;20465;-60
2022/04/24 07:23:48;;;;;;;0.80;0.50;;;;;;;;;;4977169;28;20514;-55
2022/04/24 07:26:14;;;;;;;0.90;0.60;;;;;;;;;;4953685;28;21870;-55
2022/04/24 07:28:40;;;;;;;0.90;0.60;;;;;;;;;;4978167;28;20433;-55
2022/04/24 07:31:06;;;;;;;1.30;0.60;;;;;;;;;;4970730;28;20437;-53
2022/04/24 07:33:32;;;;;;;0.83;0.50;;;;;;;;;;4977890;28;20487;-56
2022/04/24 07:35:58;;;;;;;1.60;0.70;;;;;;;;;;4940515;28;21061;-55
2022/04/24 07:38:24;;;;;;;1.67;0.70;;;;;;;;;;4996144;28;20186;-55
2022/04/24 07:40:50;;;;;;;1.57;0.50;;;;;;;;;;4987070;28;20500;-55
2022/04/24 07:43:16;;;;;;;1.13;0.67;;;;;;;;;;4994612;28;20416;-59
2022/04/24 09:18:16;;;;;;;1.30;0.67;;;;;;;;;;5112269;27;20549;-53
2022/04/24 09:20:42;;;;;;;2.00;0.70;;;;;;;;;;5090426;28;20459;-52
2022/04/24 09:23:08;;;;;;;1.20;0.90;;;;;;;;;;5096373;28;20431;-53
2022/04/24 09:25:37;;;;;;;1.40;0.63;;;;;;;;;;5096682;28;20440;-53
2022/04/24 09:28:03;;;;;;;1.47;0.97;;;;;;;;;;5095855;28;20174;-53
2022/04/24 09:30:35;;;;;;;3.43;0.87;;;;;;;;;;5093504;28;20524;-53
2022/04/24 09:33:01;;;;;;;1.20;0.80;;;;;;;;;;5094425;28;20427;-54
2022/04/24 09:35:28;;;;;;;1.43;0.80;;;;;;;;;;5096287;28;21516;-55
2022/04/24 09:38:21;;;;;;;1.77;1.00;;;;;;;;;;5092454;28;21465;-53
2022/04/24 09:40:47;;;;;;;2.70;1.00;;;;;;;;;;5110815;27;20428;-54
2022/04/24 09:43:14;;;;;;;2.33;1.30;;;;;;;;;;5099072;28;20546;-55
2022/04/24 09:45:40;;;;;;;3.03;1.10;;;;;;;;;;5105852;28;20510;-52
2022/04/24 09:48:20;;;;;;;1.60;1.00;;;;;;;;;;5100794;28;20435;-54
2022/04/24 09:50:47;;;;;;;2.47;1.10;;;;;;;;;;5070824;28;21178;-54
2022/04/24 09:53:13;;;;;;;1.17;0.93;;;;;;;;;;5027276;28;21202;-54
2022/04/24 09:55:46;;;;;;;1.00;0.70;;;;;;;;;;5070924;28;21102;-56
2022/04/24 09:58:13;;;;;;;2.13;1.20;;;;;;;;;;5094006;27;20550;-51
2022/04/24 10:00:39;;;;;;;1.63;1.10;;;;;;;;;;5072298;27;20446;-51
2022/04/24 10:03:05;;;;;;;2.53;1.20;;;;;;;;;;5091022;28;20440;-52
2022/04/24 10:05:31;;;;;;;1.20;1.03;;;;;;;;;;5061681;28;20443;-53
2022/04/24 10:07:57;;;;;;;1.97;0.90;;;;;;;;;;5089865;28;20838;-52
2022/04/24 10:10:23;;;;;;;2.83;1.20;;;;;;;;;;5076919;28;20441;-52
2022/04/24 10:12:50;;;;;;;2.77;0.90;;;;;;;;;;5100087;27;20447;-53
2022/04/24 10:15:17;;;;;;;2.50;1.40;;;;;;;;;;5087362;28;20257;-52
2022/04/24 10:17:43;;;;;;;1.63;0.97;;;;;;;;;;5099106;28;20477;-53
2022/04/24 10:20:09;;;;;;;2.60;1.07;;;;;;;;;;5068096;28;20947;-53
2022/04/24 10:22:38;;;;;;;1.93;1.20;;;;;;;;;;5095349;28;20437;-53
2022/04/24 10:25:04;;;;;;;1.77;1.40;;;;;;;;;;5063092;28;20192;-52
2022/04/24 10:27:37;;;;;;;4.43;1.63;;;;;;;;;;5090891;28;20443;-52
2022/04/24 10:30:05;;;;;;;1.13;0.90;;;;;;;;;;5047965;28;20506;-52
2022/04/24 10:32:31;;;;;;;2.17;1.00;;;;;;;;;;5076152;28;20994;-54
2022/04/24 10:34:57;;;;;;;1.60;1.23;;;;;;;;;;5075818;28;20470;-52
2022/04/24 10:37:26;;;;;;;2.03;1.73;;;;;;;;;;5080035;28;20476;-54
2022/04/24 10:39:57;;;;;;;2.03;1.30;;;;;;;;;;5042892;28;20974;-51
2022/04/24 10:42:36;;;;;;;2.03;1.40;;;;;;;;;;5081952;28;20529;-53
2022/04/24 10:45:08;;;;;;;1.90;1.60;;;;;;;;;;5059998;28;20447;-50
2022/04/24 10:47:46;;;;;;;2.20;1.23;;;;;;;;;;5075907;28;20486;-52
2022/04/24 10:50:13;;;;;;;3.63;2.07;;;;;;;;;;5069598;28;20478;-52
2022/04/24 10:52:39;;;;;;;3.20;2.30;;;;;;;;;;5078383;28;20810;-54
2022/04/24 10:55:09;;;;;;;1.67;1.20;;;;;;;;;;5055620;28;20452;-53
2022/04/24 10:57:40;;;;;;;2.80;1.50;;;;;;;;;;5078566;28;20507;-51
2022/04/24 11:00:13;;;;;;;2.23;1.33;;;;;;;;;;5034242;28;20432;-52
2022/04/24 11:02:39;;;;;;;2.67;2.10;;;;;;;;;;5080500;28;20463;-51
2022/04/24 11:05:06;;;;;;;1.87;1.27;;;;;;;;;;5070560;28;20424;-51
2022/04/24 11:07:33;;;;;;;2.63;1.20;;;;;;;;;;5072172;28;20469;-52
2022/04/24 11:10:03;;;;;;;2.63;1.47;;;;;;;;;;5052991;28;20444;-51
2022/04/24 11:12:31;;;;;;;1.30;1.10;;;;;;;;;;5074208;28;20452;-52
2022/04/24 11:15:01;;;;;;;1.23;1.00;;;;;;;;;;5071900;28;21201;-50
2022/04/24 11:17:27;;;;;;;2.60;1.13;;;;;;;;;;5072227;28;20479;-51
2022/04/24 11:19:58;;;;;;;2.50;1.27;;;;;;;;;;5051392;28;20437;-53
2022/04/24 11:22:24;;;;;;;2.17;1.30;;;;;;;;;;5083775;28;20965;-53
2022/04/24 11:24:55;;;;;;;2.00;1.70;;;;;;;;;;5059561;28;20436;-53
2022/04/24 11:27:21;;;;;;;6.20;1.40;;;;;;;;;;5076565;28;20439;-52
2022/04/24 11:29:47;;;;;;;1.53;1.10;;;;;;;;;;5027623;28;20456;-52
2022/04/24 11:32:13;;;;;;;1.87;1.47;;;;;;;;;;5079296;28;20194;-52
2022/04/24 11:34:40;;;;;;;1.83;1.63;;;;;;;;;;5069097;28;20270;-54
2022/04/24 11:37:07;;;;;;;2.37;1.10;;;;;;;;;;5084685;28;20819;-53
2022/04/24 11:39:33;;;;;;;2.40;1.37;;;;;;;;;;5079296;28;20485;-53
2022/04/24 11:41:59;;;;;;;1.30;0.90;;;;;;;;;;5074920;28;20529;-52
2022/04/24 11:50:13;;;;;;;1.30;0.90;;;;;;;;;;5067066;28;20466;-52
2022/04/24 11:52:40;;;;;;;1.27;0.90;;;;;;;;;;5067984;28;20444;-52
2022/04/24 11:55:06;;;;;;;5.63;1.20;;;;;;;;;;5055924;28;20444;-52
2022/04/24 11:57:33;;;;;;;2.07;1.03;;;;;;;;;;5085473;28;20504;-52
2022/04/24 11:59:59;;;;;;;1.43;1.13;;;;;;;;;;5045904;28;20444;-52
2022/04/24 12:02:25;;;;;;;1.17;0.90;;;;;;;;;;5073861;28;20433;-52
2022/04/24 12:04:52;;;;;;;1.20;0.80;;;;;;;;;;5075720;28;20440;-51
2022/04/24 12:07:17;;;;;;;1.47;1.10;;;;;;;;;;5080128;28;20447;-57
2022/04/24 12:09:43;;;;;;;1.00;0.80;;;;;;;;;;5076903;28;20421;-52
2022/04/24 12:12:09;;;;;;;1.10;0.90;;;;;;;;;;5079758;28;20455;-52
2022/04/24 12:14:36;;;;;;;2.20;1.47;;;;;;;;;;5034552;28;20435;-51
2022/04/24 12:17:03;;;;;;;2.33;1.27;;;;;;;;;;5079279;28;20509;-52
2022/04/24 12:19:29;;;;;;;3.13;1.37;;;;;;;;;;5070297;28;20432;-52
2022/04/24 12:21:55;;;;;;;1.37;0.80;;;;;;;;;;5068681;28;20429;-52
2022/04/24 12:24:21;;;;;;;1.37;1.00;;;;;;;;;;5066920;28;20964;-51
2022/04/24 12:26:51;;;;;;;2.50;1.00;;;;;;;;;;5066912;28;20515;-53
2022/04/24 12:29:17;;;;;;;2.73;1.63;;;;;;;;;;5036207;28;20775;-52
2022/04/24 12:31:44;;;;;;;1.73;1.10;;;;;;;;;;5076348;28;20527;-52
2022/04/24 12:34:10;;;;;;;3.07;1.10;;;;;;;;;;5071732;28;20448;-52
2022/04/24 12:36:36;;;;;;;3.20;1.13;;;;;;;;;;5073952;28;20484;-56
2022/04/24 12:39:06;;;;;;;1.40;0.90;;;;;;;;;;5059341;28;20436;-51
2022/04/24 12:41:33;;;;;;;1.10;0.90;;;;;;;;;;5080269;28;20913;-52
2022/04/24 12:44:00;;;;;;;1.60;0.97;;;;;;;;;;5044724;28;20441;-51
2022/04/24 12:46:26;;;;;;;1.47;0.97;;;;;;;;;;5068655;28;20447;-53
2022/04/24 12:48:52;;;;;;;1.87;1.07;;;;;;;;;;5052455;28;23198;-52
2022/04/24 12:51:20;;;;;;;1.20;1.00;;;;;;;;;;5070736;28;20452;-52
2022/04/24 12:53:47;;;;;;;1.20;1.10;;;;;;;;;;5080927;28;20456;-52
2022/04/24 12:56:13;;;;;;;1.23;0.90;;;;;;;;;;5080711;28;20440;-52
2022/04/24 12:58:39;;;;;;;1.50;0.90;;;;;;;;;;5071615;28;20654;-52
2022/04/24 13:01:06;;;;;;;1.10;0.80;;;;;;;;;;5073841;28;20537;-52
2022/04/24 13:03:32;;;;;;;1.13;0.70;;;;;;;;;;5058377;28;21009;-50
2022/04/24 13:05:58;;;;;;;1.53;0.90;;;;;;;;;;5038597;28;20996;-52
2022/04/24 13:08:24;;;;;;;1.37;0.77;;;;;;;;;;5063815;28;20456;-50
2022/04/24 13:10:51;;;;;;;1.90;1.07;;;;;;;;;;5063057;28;20469;-53
2022/04/24 13:13:17;;;;;;;1.00;0.80;;;;;;;;;;5065541;28;20436;-52
2022/04/24 13:15:42;;;;;;;0.90;0.70;;;;;;;;;;5059703;28;20451;-50
2022/04/24 13:18:08;;;;;;;1.30;0.70;;;;;;;;;;5064610;28;20483;-53
2022/04/24 13:20:38;;;;;;;2.17;0.70;;;;;;;;;;5028650;28;20445;-53
2022/04/24 13:23:05;;;;;;;1.00;0.77;;;;;;;;;;5068860;28;20454;-51
2022/04/24 13:25:31;;;;;;;1.40;0.63;;;;;;;;;;5060655;28;20483;-50
2022/04/24 13:27:57;;;;;;;0.90;0.63;;;;;;;;;;5048165;28;20590;-52
2022/04/24 13:30:24;;;;;;;1.10;0.70;;;;;;;;;;5022532;28;20971;-51
2022/04/24 13:32:50;;;;;;;1.23;0.70;;;;;;;;;;5064472;28;20444;-51
2022/04/24 13:35:16;;;;;;;1.00;0.70;;;;;;;;;;5019308;28;20487;-52
2022/04/24 13:40:26;;;;;;;0.90;0.60;;;;;;;;;;5036372;28;20517;-51
2022/04/24 13:42:52;;;;;;;1.30;0.90;;;;;;;;;;5061701;28;21513;-50
2022/04/24 13:45:38;;;;;;;1.13;0.90;;;;;;;;;;5038601;28;20575;-55
2022/04/24 13:48:19;;;;;;;1.10;0.97;;;;;;;;;;5062790;28;20436;-53
2022/04/24 13:51:17;;;;;;;1.10;0.80;;;;;;;;;;5051236;28;20444;-51
2022/04/24 13:53:54;;;;;;;1.30;0.90;;;;;;;;;;5062061;28;20432;-51
2022/04/24 13:56:21;;;;;;;1.10;0.80;;;;;;;;;;5039520;28;20496;-56
2022/04/24 13:58:47;;;;;;;1.20;0.87;;;;;;;;;;5051263;28;20508;-51
2022/04/24 14:01:14;;;;;;;1.67;1.50;;;;;;;;;;5051228;28;20437;-53
2022/04/24 14:03:56;;;;;;;1.03;0.80;;;;;;;;;;5066542;28;20444;-52
2022/04/24 14:06:46;;;;;;;1.20;0.80;;;;;;;;;;5055972;28;20592;-51
2022/04/24 14:09:15;;;;;;;1.10;0.60;;;;;;;;;;5076007;28;21263;-51
2022/04/24 14:11:43;;;;;;;1.40;0.90;;;;;;;;;;5059170;28;20444;-51
2022/04/24 14:14:10;;;;;;;1.43;0.90;;;;;;;;;;5075513;28;20432;-51
2022/04/24 14:16:37;;;;;;;0.90;0.70;;;;;;;;;;5083117;28;20464;-52
2022/04/24 14:19:03;;;;;;;1.27;0.70;;;;;;;;;;5081683;28;20449;-50
2022/04/24 14:21:43;;;;;;;1.70;0.77;;;;;;;;;;5062039;28;20436;-55
2022/04/24 14:24:11;;;;;;;1.73;0.60;;;;;;;;;;5090505;28;20443;-51
2022/04/24 14:26:38;;;;;;;1.00;0.67;;;;;;;;;;5061419;28;22481;-52
2022/04/24 14:29:08;;;;;;;1.30;0.90;;;;;;;;;;5064947;28;20447;-52
2022/04/24 14:31:36;;;;;;;1.23;1.00;;;;;;;;;;5061192;28;20440;-51
2022/04/24 14:34:03;;;;;;;1.30;0.80;;;;;;;;;;5081356;28;20441;-52
2022/04/24 14:36:30;;;;;;;1.20;0.90;;;;;;;;;;5079817;28;20470;-51
2022/04/24 14:38:56;;;;;;;1.00;0.63;;;;;;;;;;5057544;28;20533;-51
2022/04/24 14:41:23;;;;;;;0.93;0.70;;;;;;;;;;5082836;28;20428;-51
2022/04/24 14:43:49;;;;;;;1.10;1.00;;;;;;;;;;5070790;28;20566;-51
2022/04/24 14:57:41;;;;;;;1.30;1.10;;;;;;;;;;5070044;28;20501;-52
2022/04/24 15:00:11;;;;;;;1.30;0.90;;;;;;;;;;5067686;28;23920;-51
2022/04/24 15:02:59;;;;;;;1.30;1.00;;;;;;;;;;5064421;28;20452;-51
2022/04/24 15:05:25;;;;;;;1.27;1.00;;;;;;;;;;5069457;28;20427;-50
2022/04/24 15:07:51;;;;;;;1.23;0.80;;;;;;;;;;5047543;28;21884;-51
2022/04/24 15:10:17;;;;;;;1.90;1.30;;;;;;;;;;5070178;28;20425;-49
2022/04/24 15:12:56;;;;;;;1.60;1.10;;;;;;;;;;5059244;28;21139;-52
2022/04/24 15:15:24;;;;;;;1.27;1.17;;;;;;;;;;5070012;28;20637;-51
2022/04/24 15:17:54;;;;;;;1.67;1.37;;;;;;;;;;5072688;28;20967;-50
2022/04/24 15:20:20;;;;;;;3.90;3.50;;;;;;;;;;5080248;28;20419;-52
2022/04/24 15:22:46;;;;;;;2.33;2.13;;;;;;;;;;5070491;28;21215;-51
2022/04/24 15:25:13;;;;;;;2.23;2.03;;;;;;;;;;5075381;28;20511;-52
2022/04/24 15:28:14;;;;;;;6.37;5.73;;;;;;;;;;5067242;28;20450;-56
2022/04/24 15:31:00;;;;;;;1.00;0.80;;;;;;;;;;5073908;28;20436;-52
2022/04/24 15:33:42;;;;;;;1.07;0.80;;;;;;;;;;5068601;28;20511;-53
2022/04/24 15:36:17;;;;;;;14.03;12.03;;;;;;;;;;5074816;28;20448;-52
2022/04/24 15:38:47;;;;;;;3.20;2.60;;;;;;;;;;5051124;28;23053;-52
2022/04/24 15:41:16;;;;;;;2.70;2.33;;;;;;;;;;5069107;28;20437;-51
2022/04/24 15:43:42;;;;;;;1.60;1.40;;;;;;;;;;5041096;28;20436;-52
2022/04/24 15:46:08;;;;;;;84.87;67.77;;;;;;;;;;5086595;28;20640;-51
2022/04/24 15:48:34;;;;;;;41.80;37.10;;;;;;;;;;5059879;28;20452;-51
2022/04/24 15:51:01;;;;;;;8.17;7.47;;;;;;;;;;5066223;28;20837;-51
2022/04/24 15:53:38;;;;;;;13.77;11.43;;;;;;;;;;5077090;28;20433;-50
2022/04/24 15:56:06;;;;;;;3.10;1.40;;;;;;;;;;5076985;28;20481;-52
2022/04/24 15:58:54;;;;;;;15.83;14.27;;;;;;;;;;5063871;28;20441;-52
2022/04/24 16:01:22;;;;;;;7.60;6.90;;;;;;;;;;5059103;28;21019;-52
2022/04/24 16:03:48;;;;;;;6.03;1.10;;;;;;;;;;5048830;28;20444;-50
2022/04/24 16:06:17;;;;;;;4.70;2.90;;;;;;;;;;5070982;28;20425;-51
2022/04/24 16:08:48;;;;;;;2.50;2.30;;;;;;;;;;5053016;28;20799;-51
2022/04/24 16:11:14;;;;;;;4.00;2.10;;;;;;;;;;5066053;28;20433;-52
2022/04/24 16:13:46;;;;;;;2.97;2.40;;;;;;;;;;5057385;28;20433;-51
2022/04/24 16:16:15;;;;;;;11.67;10.27;;;;;;;;;;5089529;28;21307;-52
2022/04/24 16:18:41;;;;;;;4.43;2.60;;;;;;;;;;5074470;28;20425;-52
2022/04/24 16:21:07;;;;;;;5.33;3.40;;;;;;;;;;5077976;28;20455;-52
2022/04/24 16:23:33;;;;;;;4.93;3.83;;;;;;;;;;5061289;28;20449;-55
2022/04/24 16:25:59;;;;;;;6.50;3.60;;;;;;;;;;5083567;28;20424;-52
2022/04/24 16:28:38;;;;;;;7.57;6.37;;;;;;;;;;5063077;28;20425;-52